Aeroporto :
LOGIN :

Iscrizione | Disclaimer

   EN    FR    IT 

 










Sommario :    VFR   VFR Marginale   IFR   IFR Intensivo   IFR Molto Intensivo
Visibilità : 
Base nubi : 
>= 8 km
>= 3000ft
5 / 8 km
1000 / 3000 ft
1500m / 5 km
500 / 1000 ft
800 / 1500m
200 / 500 ft
< 800m
< 200 ft
Simboli :   Temporali  Nebbia  Neve Forte  Precipitazioni Forti  Vento > 20 kt
SIGMETs :   Varie  Temporali  Ghiacco  Turbolenza  Onda orograficha  Ceneri Vulcaniche






- Altitudine del aeroporto : 333 ft


LIPL - Ghedi Brescia (Mil)

ULTIMO METAR :
  • 192055Z /////KT 1500 BR SCT010 SCT060 00/M02 Q1022 RMK BKN VIS MIN 1500 WIND THR31 12001KT WIND THR13 14001KT AMB

METARs OBSOLETI :
  • 191955Z /////KT 1500 BR SCT010 SCT030 00/M02 Q1023 RMK BKN VIS MIN 1500 WIND THR31 32002KT WIND THR13 32002KT AMB
  • 191855Z 26002KT 1600 BR SCT008 SCT060 00/M02 Q1023 RMK BKN VIS MIN 1600 WIND THR31 26002KT WIND THR13 28001KT YLO

TAF COR TAF LIPL
Valido dal 19 a 21 ore il 20 a 06 ore UTC


192045Z 1921/2006 09003KT 1200 BR SCT010 SCT030
TEMPO 1923/2006 0800 FZFG BKN002



MetMap, La meteo Aeronautica in un colpo d'occhio ! - Copyright ORBIFLY Dicembre 2007 - Disclaimer

ORBIFLY MET'MAP TEAM :

Programmazione e sviluppo : Alexandra Zaïnal
Concezione : Baudouin d'Aumeries
Aiuto per la programmazione : Marc-Olivier Méhu
Supporto tecnico e logistico : Manuel Goepfert
Aiuto per la traduzione : Arnaldo La Scala

Contatto : metmap@orbifly.com




FONTI E CREDITI :

   NOAA